Main page
METAR-TAF:

METAR-TAF

Airports :

Base Aérea de Alcantarilla

Murcia, Spain

latitude: 37-57N, longitude: 001-14W, elevation: 75 m

Current weather observation

The report was made 1 hour and 39 minutes ago, at 18:00 UTC
Wind 3 kt from the East
Temperature 9°C
Humidity 71%
Pressure 1025 hPa
Visibility 10 km or more
Few clouds at a height of 3000 ft

METAR: LERI 211800Z 10003KT 9999 FEW030 09/04 Q1025 NOSIG

Time: 20:39 (19:39 UTC)

Forecast

The report was made 2 hours and 39 minutes ago, at 17:00 UTC
Forecast valid from 21 at 18 UTC to 22 at 18 UTC
Wind 4 kt from the Northwest
Visibility 10 km or more
Few clouds at a height of 3000 ft
Probability 30% :
Temporary
from 21 at 22 UTC to 22 at 14 UTC
Visibility: 4000 m
Broken clouds at a height of 800 ft
rain, mist

TAF: LERI 211700Z 2118/2218 31004KT 9999 FEW030 TX14/2215Z TN01/2207Z PROB30 TEMPO 2122/2214 4000 RA BR BKN008

Weather observations and forecasts of more than 4000 airports (METAR and TAF reports).

The available stations are represented by yellow and red dots on the map.

Hover mouse over dot to see the name of the station.

Then click to see weather observations and forecasts.

To change the map : click on the green buttons with a black cross to zoom in, on the green button with a dash to zoom out, or on the green arrows for adjacent maps.


METAR-TAF: